createdAt,value
2023-01-21T00:01:48.208Z,100928.66
2023-01-21T00:04:23.281Z,100924.28
2023-01-21T00:06:59.178Z,100930.59
2023-01-21T00:09:35.229Z,100934.72
2023-01-21T00:12:12.310Z,100936.03
2023-01-21T00:14:42.826Z,100935.38
2023-01-21T00:17:13.338Z,100940.16
2023-01-21T00:19:57.449Z,100943.09
2023-01-21T00:22:28.391Z,100948.44
2023-01-21T00:24:58.073Z,100946.19
2023-01-21T00:27:29.189Z,100950.97
2023-01-21T00:29:57.342Z,100950.97
2023-01-21T00:32:29.107Z,100945.09
2023-01-21T00:35:03.864Z,100955.06
2023-01-21T00:37:34.947Z,100954.19
2023-01-21T00:40:05.732Z,100968.25
2023-01-21T00:42:38.624Z,100971.44
2023-01-21T00:45:08.453Z,100970.88
2023-01-21T00:47:39.494Z,100968.78
2023-01-21T00:50:12.313Z,100963.13
2023-01-21T00:52:43.369Z,100974.25
2023-01-21T00:55:11.608Z,100982.66
2023-01-21T00:57:39.502Z,100978.50
2023-01-21T01:00:15.186Z,100982.19
2023-01-21T01:02:44.983Z,100989.09
2023-01-21T01:05:15.124Z,100992.06
2023-01-21T01:07:47.265Z,101004.00
2023-01-21T01:10:15.627Z,101000.81
2023-01-21T01:12:44.045Z,101006.28
2023-01-21T01:15:12.936Z,100988.59
2023-01-21T01:17:41.410Z,101011.22
2023-01-21T01:20:13.921Z,101010.28
2023-01-21T01:22:44.352Z,101008.88
2023-01-21T01:25:14.869Z,101016.75
2023-01-21T01:27:45.847Z,101018.13
2023-01-21T01:30:14.784Z,101031.53
2023-01-21T01:32:44.509Z,101040.81
2023-01-21T01:35:17.629Z,101041.63
2023-01-21T01:37:50.217Z,101041.22
2023-01-21T01:40:22.004Z,101041.09
2023-01-21T01:42:52.180Z,101019.38
2023-01-21T01:45:32.064Z,101063.13
2023-01-21T01:48:07.984Z,101058.19
2023-01-21T01:50:41.397Z,101066.63
2023-01-21T01:53:25.711Z,101071.81
2023-01-21T01:55:56.627Z,101050.41
2023-01-21T01:58:28.075Z,101071.56
2023-01-21T02:00:59.892Z,101080.75
2023-01-21T02:03:46.873Z,101057.34
2023-01-21T02:06:21.523Z,101077.06
2023-01-21T02:08:54.304Z,101088.16
2023-01-21T02:11:23.687Z,101095.00
2023-01-21T02:13:54.462Z,101097.13
2023-01-21T02:16:47.211Z,101096.50
2023-01-21T02:20:00.927Z,101099.44
2023-01-21T02:22:39.284Z,101096.50
2023-01-21T02:25:50.932Z,101098.47
2023-01-21T02:29:08.269Z,101105.13
2023-01-21T02:32:19.757Z,101098.28
2023-01-21T02:34:58.634Z,101102.94
2023-01-21T02:37:40.051Z,101105.19
2023-01-21T02:40:15.397Z,101112.22
2023-01-21T02:42:47.950Z,101117.22
2023-01-21T02:45:26.667Z,101121.06
2023-01-21T02:48:06.472Z,101118.06
2023-01-21T02:50:42.686Z,101132.06
2023-01-21T02:53:24.804Z,101131.09
2023-01-21T02:55:55.239Z,101114.03
2023-01-21T02:58:32.394Z,101126.44
2023-01-21T03:01:24.044Z,101138.16
2023-01-21T03:04:26.071Z,101133.09
2023-01-21T03:07:11.963Z,101142.31
2023-01-21T03:09:41.121Z,101148.97
2023-01-21T03:12:23.654Z,101155.63
2023-01-21T03:15:19.218Z,101166.53
2023-01-21T03:17:55.589Z,101142.31
2023-01-21T03:20:31.506Z,101154.56
2023-01-21T03:23:05.120Z,101145.03
2023-01-21T03:25:37.986Z,101173.16
2023-01-21T03:28:12.385Z,101175.34
2023-01-21T03:30:45.976Z,101171.97
2023-01-21T03:33:18.806Z,101186.25
2023-01-21T03:35:54.698Z,101180.44
2023-01-21T03:38:31.441Z,101182.13
2023-01-21T03:41:05.171Z,101177.06
2023-01-21T03:43:36.085Z,101174.50
2023-01-21T03:46:13.412Z,101181.41
2023-01-21T03:48:46.492Z,101193.78
2023-01-21T03:51:23.463Z,101186.00
2023-01-21T03:53:59.873Z,101193.88
2023-01-21T03:56:31.688Z,101192.69
2023-01-21T03:59:00.163Z,101192.91
2023-01-21T04:01:29.772Z,101196.66
2023-01-21T04:04:01.367Z,101192.06
2023-01-21T04:06:29.901Z,101193.28
2023-01-21T04:09:06.762Z,101200.56
2023-01-21T04:11:35.813Z,101195.00
2023-01-21T04:14:05.892Z,101192.34
2023-01-21T04:16:38.268Z,101194.50
2023-01-21T04:19:15.993Z,101197.88
2023-01-21T04:21:44.163Z,101203.94
2023-01-21T04:24:13.711Z,101203.44
2023-01-21T04:26:42.732Z,101210.81
2023-01-21T04:29:11.508Z,101209.84
2023-01-21T04:31:41.236Z,101205.72
2023-01-21T04:34:12.271Z,101204.19
2023-01-21T04:36:45.635Z,101197.63
2023-01-21T04:39:16.840Z,101182.63
2023-01-21T04:41:45.811Z,101207.78
2023-01-21T04:44:15.728Z,101198.00
2023-01-21T04:46:44.261Z,101216.63
2023-01-21T04:49:12.853Z,101207.94
2023-01-21T04:51:43.791Z,101222.06
2023-01-21T04:54:16.053Z,101209.97
2023-01-21T04:56:45.555Z,101213.59
2023-01-21T04:59:16.071Z,101216.75
2023-01-21T05:01:44.799Z,101208.16
2023-01-21T05:04:14.765Z,101222.31
2023-01-21T05:06:49.030Z,101214.81
2023-01-21T05:09:20.726Z,101229.34
2023-01-21T05:11:51.382Z,101231.63
2023-01-21T05:14:22.869Z,101228.63
2023-01-21T05:16:53.749Z,101233.81
2023-01-21T05:19:23.346Z,101232.16
2023-01-21T05:21:51.789Z,101216.25
2023-01-21T05:24:22.962Z,101229.97
2023-01-21T05:26:54.017Z,101229.00
2023-01-21T05:29:23.902Z,101236.03
2023-01-21T05:31:53.220Z,101239.13
2023-01-21T05:34:21.179Z,101238.41
2023-01-21T05:36:52.606Z,101216.75
2023-01-21T05:39:21.145Z,101240.34
2023-01-21T05:41:53.488Z,101245.06
2023-01-21T05:44:21.583Z,101243.84
2023-01-21T05:46:52.152Z,101239.00
2023-01-21T05:49:22.726Z,101235.75
2023-01-21T05:51:53.689Z,101247.09
2023-01-21T05:54:27.663Z,101260.78
2023-01-21T05:57:01.179Z,101253.25
2023-01-21T05:59:37.444Z,101249.66
2023-01-21T06:02:09.782Z,101244.81
2023-01-21T06:04:38.991Z,101265.00
2023-01-21T06:07:10.716Z,101231.31
2023-01-21T06:09:39.802Z,101249.28
2023-01-21T06:12:18.333Z,101264.88
2023-01-21T06:14:48.343Z,101268.03
2023-01-21T06:17:16.435Z,101274.09
2023-01-21T06:19:45.209Z,101274.56
2023-01-21T06:22:17.336Z,101267.53
2023-01-21T06:24:47.663Z,101268.03
2023-01-21T06:27:21.235Z,101292.31
2023-01-21T06:29:50.379Z,101275.56
2023-01-21T06:32:22.292Z,101283.50
2023-01-21T06:34:52.205Z,101292.31
2023-01-21T06:37:22.205Z,101292.09
2023-01-21T06:39:50.542Z,101290.75
2023-01-21T06:42:21.392Z,101298.16
2023-01-21T06:44:50.038Z,101287.38
2023-01-21T06:47:18.228Z,101294.69
2023-01-21T06:49:46.886Z,101300.91
2023-01-21T06:52:15.049Z,101311.66
2023-01-21T06:54:45.418Z,101308.06
2023-01-21T06:57:14.007Z,101316.78
2023-01-21T06:59:43.454Z,101315.72
2023-01-21T07:02:16.632Z,101308.16
2023-01-21T07:04:49.968Z,101327.16
2023-01-21T07:07:18.382Z,101327.84
2023-01-21T07:09:53.888Z,101324.41
2023-01-21T07:12:22.983Z,101320.16
2023-01-21T07:15:22.339Z,101337.97
2023-01-21T07:17:59.481Z,101336.25
2023-01-21T07:20:29.018Z,101333.19
2023-01-21T07:23:03.216Z,101333.25
2023-01-21T07:25:36.777Z,101325.88
2023-01-21T07:28:09.333Z,101335.84
2023-01-21T07:30:45.173Z,101338.06
2023-01-21T07:33:15.220Z,101354.78
2023-01-21T07:35:43.251Z,101339.75
2023-01-21T07:38:13.115Z,101333.06
2023-01-21T07:40:42.740Z,101355.00
2023-01-21T07:43:12.986Z,101351.47
2023-01-21T07:46:09.714Z,101356.28
2023-01-21T07:48:37.525Z,101349.56
2023-01-21T07:51:07.451Z,101361.75
2023-01-21T07:53:38.126Z,101351.84
2023-01-21T07:56:11.264Z,101365.41
2023-01-21T07:58:47.988Z,101338.78
2023-01-21T08:01:19.927Z,101363.56
2023-01-21T08:03:50.431Z,101360.72
2023-01-21T08:06:22.190Z,101364.47
2023-01-21T08:08:50.379Z,101369.56
2023-01-21T08:11:21.716Z,101363.97
2023-01-21T08:14:04.586Z,101371.38
2023-01-21T08:16:43.265Z,101379.38
2023-01-21T08:19:15.232Z,101375.47
2023-01-21T08:21:43.712Z,101362.34
2023-01-21T08:24:12.373Z,101373.53
2023-01-21T08:26:44.708Z,101373.09
2023-01-21T08:29:15.462Z,101377.59
2023-01-21T08:31:56.180Z,101377.63
2023-01-21T08:34:28.411Z,101380.03
2023-01-21T08:36:59.252Z,101377.34
2023-01-21T08:39:30.404Z,101386.09
2023-01-21T08:41:58.725Z,101368.16
2023-01-21T08:44:26.912Z,101387.91
2023-01-21T08:46:58.694Z,101393.13
2023-01-21T08:49:27.959Z,101388.16
2023-01-21T08:51:57.135Z,101400.38
2023-01-21T08:54:24.998Z,101411.19
2023-01-21T08:56:52.741Z,101394.56
2023-01-21T08:59:28.779Z,101403.78
2023-01-21T09:02:02.558Z,101407.06
2023-01-21T09:04:33.576Z,101404.75
2023-01-21T09:07:01.577Z,101418.19
2023-01-21T09:09:29.898Z,101391.66
2023-01-21T09:11:59.639Z,101412.97
2023-01-21T09:14:29.073Z,101412.41
2023-01-21T09:17:00.374Z,101412.13
2023-01-21T09:19:40.033Z,101424.50
2023-01-21T09:22:09.319Z,101421.94
2023-01-21T09:24:42.796Z,101421.31
2023-01-21T09:27:11.086Z,101425.06
2023-01-21T09:29:42.134Z,101432.66
2023-01-21T09:32:12.146Z,101430.91
2023-01-21T09:34:42.185Z,101426.03
2023-01-21T09:37:12.539Z,101428.78
2023-01-21T09:39:43.504Z,101433.69
2023-01-21T09:42:20.754Z,101420.69
2023-01-21T09:44:54.529Z,101435.50
2023-01-21T09:47:33.914Z,101438.75
2023-01-21T09:50:06.431Z,101422.72
2023-01-21T09:52:41.115Z,101442.38
2023-01-21T09:55:19.759Z,101443.88
2023-01-21T09:58:06.858Z,101448.06
2023-01-21T10:00:43.499Z,101451.25
2023-01-21T10:03:24.056Z,101473.31
2023-01-21T10:06:35.358Z,101441.16
2023-01-21T10:09:30.039Z,101449.81
2023-01-21T10:12:21.358Z,101450.22
2023-01-21T10:15:15.799Z,101445.25
2023-01-21T10:17:52.677Z,101430.41
2023-01-21T10:20:36.872Z,101445.72
2023-01-21T10:23:09.644Z,101452.31
2023-01-21T10:25:39.613Z,101435.00
2023-01-21T10:28:15.301Z,101442.63
2023-01-21T10:31:24.731Z,101434.38
2023-01-21T10:33:58.089Z,101437.78
2023-01-21T10:36:55.879Z,101422.84
2023-01-21T10:39:37.045Z,101430.75
2023-01-21T10:42:20.271Z,101428.75
2023-01-21T10:44:58.724Z,101430.34
2023-01-21T10:47:40.680Z,101445.84
2023-01-21T10:50:35.731Z,101431.06
2023-01-21T10:53:17.108Z,101439.50
2023-01-21T10:56:08.385Z,101437.44
2023-01-21T10:58:43.849Z,101439.75
2023-01-21T11:01:24.671Z,101434.47
2023-01-21T11:04:01.810Z,101434.56
2023-01-21T11:06:35.295Z,101438.25
2023-01-21T11:09:08.982Z,101429.25
2023-01-21T11:11:41.097Z,101444.50
2023-01-21T11:14:09.540Z,101440.66
2023-01-21T11:16:44.214Z,101428.16
2023-01-21T11:19:15.827Z,101438.78
2023-01-21T11:22:01.983Z,101445.13
2023-01-21T11:24:32.524Z,101454.66
2023-01-21T11:27:04.901Z,101443.53
2023-01-21T11:29:43.799Z,101452.34
2023-01-21T11:32:20.718Z,101453.00
2023-01-21T11:34:51.291Z,101446.69
2023-01-21T11:37:25.218Z,101452.53
2023-01-21T11:40:01.103Z,101452.53
2023-01-21T11:42:33.842Z,101457.75
2023-01-21T11:45:06.805Z,101453.16
2023-01-21T11:47:41.029Z,101461.53
2023-01-21T11:50:14.247Z,101460.00
2023-01-21T11:52:49.253Z,101453.38
2023-01-21T11:55:27.296Z,101445.00
2023-01-21T11:58:02.300Z,101457.88
2023-01-21T12:00:35.802Z,101449.09
2023-01-21T12:03:09.924Z,101451.19
2023-01-21T12:05:46.269Z,101441.09
2023-01-21T12:08:24.318Z,101436.34
2023-01-21T12:10:55.713Z,101449.41
2023-01-21T12:13:33.757Z,101451.63
2023-01-21T12:16:23.130Z,101449.19
2023-01-21T12:19:16.555Z,101448.50
2023-01-21T12:22:06.021Z,101443.41
2023-01-21T12:24:51.119Z,101442.88
2023-01-21T12:27:27.768Z,101437.28
2023-01-21T12:30:09.375Z,101435.63
2023-01-21T12:32:45.965Z,101451.28
2023-01-21T12:35:20.159Z,101440.88
2023-01-21T12:37:54.085Z,101444.47
2023-01-21T12:40:30.403Z,101454.28
2023-01-21T12:43:05.478Z,101440.97
2023-01-21T12:45:42.406Z,101440.72
2023-01-21T12:48:17.171Z,101446.16
2023-01-21T12:50:54.872Z,101442.56
2023-01-21T12:53:35.825Z,101433.13
2023-01-21T12:56:17.743Z,101438.34
2023-01-21T12:58:54.717Z,101449.03
2023-01-21T13:01:42.815Z,101446.59
2023-01-21T13:04:25.331Z,101441.66
2023-01-21T13:07:04.659Z,101451.56
2023-01-21T13:09:43.541Z,101451.28
2023-01-21T13:12:19.224Z,101438.16
2023-01-21T13:14:53.600Z,101440.56
2023-01-21T13:17:37.780Z,101434.50
2023-01-21T13:20:16.364Z,101440.00
2023-01-21T13:23:01.215Z,101444.78
2023-01-21T13:25:42.639Z,101439.00
2023-01-21T13:28:23.873Z,101451.97
2023-01-21T13:31:01.026Z,101444.78
2023-01-21T13:33:52.140Z,101421.50
2023-01-21T13:36:39.707Z,101439.69
2023-01-21T13:39:23.954Z,101442.94
2023-01-21T13:42:03.969Z,101437.88
2023-01-21T13:45:15.698Z,101439.88
2023-01-21T13:48:05.783Z,101447.06
2023-01-21T13:50:59.196Z,101431.34
2023-01-21T13:54:04.661Z,101437.69
2023-01-21T13:56:48.965Z,101440.38
2023-01-21T13:59:22.399Z,101447.84
2023-01-21T14:01:56.728Z,101428.94
2023-01-21T14:04:40.764Z,101442.06
2023-01-21T14:07:14.765Z,101441.88
2023-01-21T14:09:47.167Z,101453.59
2023-01-21T14:12:24.486Z,101440.63
2023-01-21T14:15:08.021Z,101438.38
2023-01-21T14:18:12.431Z,101444.84
2023-01-21T14:20:58.639Z,101442.34
2023-01-21T14:23:49.459Z,101454.59
2023-01-21T14:26:36.052Z,101456.41
2023-01-21T14:29:17.210Z,101452.44
2023-01-21T14:31:50.861Z,101419.88
2023-01-21T14:34:27.079Z,101437.13
2023-01-21T14:37:06.102Z,101437.34
2023-01-21T14:39:50.783Z,101456.84
2023-01-21T14:42:26.359Z,101442.38
2023-01-21T14:45:04.557Z,101447.41
2023-01-21T14:48:00.396Z,101441.75
2023-01-21T14:50:56.781Z,101440.38
2023-01-21T14:53:27.152Z,101448.13
2023-01-21T14:56:18.046Z,101450.22
2023-01-21T14:58:51.475Z,101443.59
2023-01-21T15:01:42.755Z,101448.44
2023-01-21T15:04:25.925Z,101442.38
2023-01-21T15:06:58.390Z,101414.81
2023-01-21T15:09:37.846Z,101445.31
2023-01-21T15:12:17.221Z,101449.69
2023-01-21T15:14:47.691Z,101433.97
2023-01-21T15:18:05.878Z,101452.59
2023-01-21T15:20:50.839Z,101446.53
2023-01-21T15:23:31.036Z,101462.16
2023-01-21T15:26:07.405Z,101464.19
2023-01-21T15:28:45.089Z,101463.94
2023-01-21T15:31:35.485Z,101463.56
2023-01-21T15:34:17.869Z,101472.16
2023-01-21T15:36:52.986Z,101459.78
2023-01-21T15:39:29.203Z,101468.25
2023-01-21T15:42:13.771Z,101469.34
2023-01-21T15:45:00.130Z,101470.78
2023-01-21T15:48:30.168Z,101472.78
2023-01-21T15:51:14.005Z,101469.19
2023-01-21T15:54:06.927Z,101470.13
2023-01-21T15:57:02.626Z,101459.03
2023-01-21T15:59:55.256Z,101445.19
2023-01-21T16:02:28.959Z,101470.84
2023-01-21T16:05:16.792Z,101469.88
2023-01-21T16:08:03.217Z,101478.75
2023-01-21T16:10:39.169Z,101466.63
2023-01-21T16:13:16.439Z,101457.50
2023-01-21T16:16:03.427Z,101493.06
2023-01-21T16:18:49.380Z,101479.47
2023-01-21T16:21:22.938Z,101494.09
2023-01-21T16:23:54.111Z,101476.44
2023-01-21T16:26:31.857Z,101485.16
2023-01-21T16:29:16.423Z,101484.88
2023-01-21T16:32:01.250Z,101492.34
2023-01-21T16:34:44.132Z,101482.41
2023-01-21T16:37:17.492Z,101484.47
2023-01-21T16:39:51.207Z,101475.34
2023-01-21T16:42:29.449Z,101473.66
2023-01-21T16:45:00.355Z,101464.22
2023-01-21T16:47:34.630Z,101479.56
2023-01-21T16:50:07.704Z,101478.03
2023-01-21T16:52:36.073Z,101470.25
2023-01-21T16:55:08.544Z,101462.50
2023-01-21T16:57:38.522Z,101474.66
2023-01-21T17:00:33.584Z,101470.47
2023-01-21T17:03:04.881Z,101455.22
2023-01-21T17:05:37.068Z,101440.47
2023-01-21T17:08:14.961Z,101463.06
2023-01-21T17:10:59.873Z,101465.44
2023-01-21T17:13:38.076Z,101462.16
2023-01-21T17:16:08.338Z,101456.22
2023-01-21T17:18:43.863Z,101460.84
2023-01-21T17:21:16.545Z,101459.66
2023-01-21T17:23:52.798Z,101460.78
2023-01-21T17:26:25.045Z,101463.88
2023-01-21T17:28:57.790Z,101469.41
2023-01-21T17:31:33.438Z,101462.72
2023-01-21T17:34:09.185Z,101468.25
2023-01-21T17:36:43.970Z,101470.50
2023-01-21T17:39:19.291Z,101480.19
2023-01-21T17:41:49.534Z,101486.97
2023-01-21T17:44:20.698Z,101494.00
2023-01-21T17:46:54.353Z,101484.38
2023-01-21T17:49:31.087Z,101483.97
2023-01-21T17:52:11.189Z,101477.50
2023-01-21T17:54:39.259Z,101489.25
2023-01-21T17:57:09.124Z,101494.84
2023-01-21T17:59:46.987Z,101478.41
2023-01-21T18:02:19.691Z,101479.31
2023-01-21T18:04:49.687Z,101484.59
2023-01-21T18:07:25.638Z,101480.56
2023-01-21T18:10:00.079Z,101486.97
2023-01-21T18:12:31.229Z,101484.25
2023-01-21T18:15:01.195Z,101477.94
2023-01-21T18:17:30.060Z,101478.22
2023-01-21T18:20:00.221Z,101474.56
2023-01-21T18:22:30.546Z,101439.69
2023-01-21T18:25:02.888Z,101476.44
2023-01-21T18:27:31.879Z,101482.50
2023-01-21T18:30:02.213Z,101466.09
2023-01-21T18:32:31.404Z,101444.94
2023-01-21T18:35:11.155Z,101466.97
2023-01-21T18:37:40.375Z,101471.56
2023-01-21T18:40:17.777Z,101480.41
2023-01-21T18:42:50.840Z,101454.44
2023-01-21T18:45:21.059Z,101476.19
2023-01-21T18:47:51.565Z,101464.31
2023-01-21T18:50:26.866Z,101481.03
2023-01-21T18:52:59.675Z,101452.75
2023-01-21T18:55:30.923Z,101470.00
2023-01-21T18:58:06.893Z,101479.56
2023-01-21T19:00:39.799Z,101473.66
2023-01-21T19:03:17.972Z,101467.91
2023-01-21T19:05:48.002Z,101459.41
2023-01-21T19:08:22.090Z,101468.09
2023-01-21T19:10:52.765Z,101456.34
2023-01-21T19:13:23.735Z,101472.19
2023-01-21T19:15:56.139Z,101450.09
2023-01-21T19:18:34.102Z,101477.31
2023-01-21T19:21:10.353Z,101466.75
2023-01-21T19:23:40.278Z,101464.91
2023-01-21T19:26:12.316Z,101473.94
2023-01-21T19:28:41.674Z,101459.16
2023-01-21T19:31:20.387Z,101454.47
2023-01-21T19:33:52.336Z,101458.44
2023-01-21T19:36:29.434Z,101438.41
2023-01-21T19:39:02.371Z,101462.06
2023-01-21T19:41:30.556Z,101456.47
2023-01-21T19:43:58.819Z,101456.97
2023-01-21T19:46:28.986Z,101464.63
2023-01-21T19:49:00.166Z,101451.38
2023-01-21T19:51:32.192Z,101454.19
2023-01-21T19:54:06.130Z,101446.88
2023-01-21T19:56:36.208Z,101456.47
2023-01-21T19:59:06.875Z,101450.00
2023-01-21T20:01:35.192Z,101443.78
2023-01-21T20:04:05.461Z,101452.81
2023-01-21T20:06:42.667Z,101445.91
2023-01-21T20:09:17.910Z,101439.72
2023-01-21T20:11:49.359Z,101447.47
2023-01-21T20:14:17.138Z,101441.22
2023-01-21T20:16:50.898Z,101424.75
2023-01-21T20:19:26.148Z,101449.56
2023-01-21T20:22:02.044Z,101438.69
2023-01-21T20:24:36.127Z,101450.84
2023-01-21T20:27:08.631Z,101440.97
2023-01-21T20:29:49.509Z,101443.53
2023-01-21T20:32:26.245Z,101441.22
2023-01-21T20:34:54.353Z,101439.28
2023-01-21T20:37:27.885Z,101422.91
2023-01-21T20:39:57.040Z,101434.03
2023-01-21T20:42:27.386Z,101440.38
2023-01-21T20:45:02.300Z,101433.88
2023-01-21T20:47:49.641Z,101448.84
2023-01-21T20:50:27.381Z,101430.50
2023-01-21T20:53:01.072Z,101434.06
2023-01-21T20:55:34.821Z,101423.47
2023-01-21T20:58:04.285Z,101424.19
2023-01-21T21:00:37.120Z,101397.81
2023-01-21T21:03:08.148Z,101420.78
2023-01-21T21:05:38.952Z,101413.03
2023-01-21T21:08:14.902Z,101409.78
2023-01-21T21:10:44.809Z,101411.59
2023-01-21T21:13:13.212Z,101402.72
2023-01-21T21:15:46.654Z,101414.47
2023-01-21T21:18:20.563Z,101398.81
2023-01-21T21:20:48.539Z,101399.94
2023-01-21T21:23:24.781Z,101408.09
2023-01-21T21:25:53.354Z,101405.38
2023-01-21T21:28:36.108Z,101422.88
2023-01-21T21:31:05.336Z,101414.94
2023-01-21T21:33:36.135Z,101410.19
2023-01-21T21:36:04.236Z,101412.81
2023-01-21T21:38:36.389Z,101403.56
2023-01-21T21:41:28.217Z,101406.50
2023-01-21T21:43:57.556Z,101404.75
2023-01-21T21:46:44.053Z,101403.19
2023-01-21T21:49:15.665Z,101389.41
2023-01-21T21:51:45.909Z,101400.94
2023-01-21T21:54:21.284Z,101378.97
2023-01-21T21:56:52.166Z,101380.91
2023-01-21T21:59:22.952Z,101399.28
2023-01-21T22:02:00.668Z,101373.75
2023-01-21T22:04:30.235Z,101372.94
2023-01-21T22:07:03.628Z,101375.91
2023-01-21T22:09:35.908Z,101374.78
2023-01-21T22:12:04.358Z,101378.81
2023-01-21T22:14:34.863Z,101375.78
2023-01-21T22:17:09.164Z,101375.19
2023-01-21T22:19:38.017Z,101372.78
2023-01-21T22:22:09.308Z,101374.94
2023-01-21T22:25:04.195Z,101369.69
2023-01-21T22:27:32.513Z,101358.28
2023-01-21T22:30:02.416Z,101365.31
2023-01-21T22:32:32.571Z,101360.81
2023-01-21T22:35:09.258Z,101381.38
2023-01-21T22:37:41.380Z,101359.84
2023-01-21T22:40:25.874Z,101380.56
2023-01-21T22:42:55.826Z,101364.91
2023-01-21T22:45:37.436Z,101356.16
2023-01-21T22:48:07.557Z,101367.59
2023-01-21T22:50:39.787Z,101359.97
2023-01-21T22:53:08.927Z,101351.22
2023-01-21T22:55:41.275Z,101340.50
2023-01-21T22:58:09.081Z,101357.84
2023-01-21T23:00:40.741Z,101344.75
2023-01-21T23:03:11.069Z,101342.34
2023-01-21T23:05:40.948Z,101355.56
2023-01-21T23:08:08.926Z,101344.91
2023-01-21T23:10:40.553Z,101343.19
2023-01-21T23:13:12.729Z,101346.31
2023-01-21T23:15:44.251Z,101340.41
2023-01-21T23:18:21.379Z,101281.03
2023-01-21T23:20:49.536Z,101330.78
2023-01-21T23:23:20.651Z,101332.59
2023-01-21T23:25:51.960Z,101324.31
2023-01-21T23:28:20.009Z,101314.28
2023-01-21T23:30:52.029Z,101333.91
2023-01-21T23:33:34.674Z,101310.78
2023-01-21T23:36:03.141Z,101317.41
2023-01-21T23:38:33.234Z,101337.69
2023-01-21T23:41:09.290Z,101313.16
2023-01-21T23:43:38.923Z,101304.56
2023-01-21T23:46:09.014Z,101330.50
2023-01-21T23:48:38.272Z,101314.56
2023-01-21T23:51:09.370Z,101308.22
2023-01-21T23:53:39.389Z,101321.75
2023-01-21T23:56:13.636Z,101309.78
2023-01-21T23:58:46.071Z,101318.53
